Osceola, MO

3:34 PM CDT on July 24, 2014 (GMT -0500)
Skyhaven (KRCM) Elev 797 ft | 38.78 °N, 93.80 °W | Change Station

Current weather conditions updated 19 minutes ago

Clear
Clear
81 °F
Feels Like 80 °F
N
8
Wind Variable Wind from SE

Today is forecast to be Cooler than yesterday.

Today
High -- | Low -- °F
--% Chance of Precip.
Yesterday
High -- | Low -- °F
Precip. -- in
6:11 AM 8:31 PM
Waning Crescent, 4% visible
Pressure 30.08 in
Visibility 10.0 miles
Clouds Clear
Heat Index 80 °F
Dew Point 55 °F
Humidity 42%
Rainfall 0.00 in
Snow Depth Not available.
UV 10 out of 12
Pollen 5.40 out of 12
Air Quality Not available.
Flu Activity Not available.
METAR KRCM 242015Z AUTO 13007KT 10SM CLR 27/13 A3008 RMK AO2

More Conditions Fewer Conditions

Pressure 30.08 in
Visibility 10.0 miles
Clouds Clear
Heat Index 80 °F
Dew Point 55 °F
Humidity 42%
Rainfall 0.00 in
Snow Depth Not available.
UV 10 out of 12
Pollen 5.40 out of 12
Air Quality Not available.
Flu Activity Not available.
METAR KRCM 242015Z AUTO 13007KT 10SM CLR 27/13 A3008 RMK AO2

More Conditions Fewer Conditions

10-Day Weather Forecast

Almanac

Astronomy

Jul. 24, 2014 Rise Set
Actual Time 6:11 AM CDT 8:31 PM CDT
Civil Twilight 5:41 AM CDT 9:01 PM CDT
Nautical Twilight 5:04 AM CDT 9:38 PM CDT
Astronomical Twilight 4:24 AM CDT 10:18 PM CDT
Moon 4:19 AM CDT 6:47 PM CDT
Length of Visible Light 15h 19m
Length of Day
14h 19m
Tomorrow will be 1m 37s shorter.
Waning Crescent, 4% of the Moon is Illuminated
Today
Waning Crescent
Jul 26
New
Aug 3
First Quarter
Aug 10
Full
Aug 17
Last Quarter

Community

WunderPhotos

Upload Photos

1,737,123 photos uploaded!

Nearby

Snow Depth

Station Depth Elevation
No new snow has been reported.

Earthquake Activity

City Distance Mag. Time & Date
No recent earthquake activity has been reported nearby.
Minimum magnitude displayed is 2.5.

Coastal Water Temperatures

Place Temperature
No Stations Reporting

Nearby Weather Stations

Station Location Temp. Heat Index Dew Point Humidity Wind Precip. Elev Updated Type
Between Arnica And Bugtussle, Humansville, MO 89.2 °F 87 °F 54 °F 30% East  at  0.9 mph 0.00 in / hr 1010 ft 3:33 PM CDT Normal
City Park, Stockton, MO 83.8 °F 84 °F 60 °F 44% SE  at  4.5 mph 0.00 in / hr 958 ft 3:34 PM CDT Rapid Fire

Show More Stations Show Fewer Stations